sensor_id;sensor_type;location;lat;lon;timestamp;P1;durP1;ratioP1;P2;durP2;ratioP2
61373;SDS011;47242;48.158;-1.586;2022-11-20T05:32:12;8.50;;;5.55;;
61373;SDS011;47242;48.158;-1.586;2022-11-20T05:34:38;8.60;;;5.90;;
61373;SDS011;47242;48.158;-1.586;2022-11-20T05:37:04;8.15;;;5.65;;
61373;SDS011;47242;48.158;-1.586;2022-11-20T05:39:29;7.88;;;5.00;;
61373;SDS011;47242;48.158;-1.586;2022-11-20T05:41:55;8.75;;;4.47;;
61373;SDS011;47242;48.158;-1.586;2022-11-20T05:44:39;15.00;;;5.15;;
61373;SDS011;47242;48.158;-1.586;2022-11-20T05:47:05;6.30;;;4.22;;
61373;SDS011;47242;48.158;-1.586;2022-11-20T05:49:31;8.57;;;5.10;;
61373;SDS011;47242;48.158;-1.586;2022-11-20T05:51:57;6.65;;;4.88;;
61373;SDS011;47242;48.158;-1.586;2022-11-20T05:54:22;10.05;;;4.68;;
61373;SDS011;47242;48.158;-1.586;2022-11-20T05:56:48;10.27;;;5.35;;
61373;SDS011;47242;48.158;-1.586;2022-11-20T05:59:14;6.20;;;4.68;;
61373;SDS011;47242;48.158;-1.586;2022-11-20T06:01:40;7.93;;;4.47;;
61373;SDS011;47242;48.158;-1.586;2022-11-20T06:04:05;9.48;;;4.65;;
61373;SDS011;47242;48.158;-1.586;2022-11-20T06:06:31;6.97;;;4.95;;
61373;SDS011;47242;48.158;-1.586;2022-11-20T06:08:57;6.88;;;4.68;;
61373;SDS011;47242;48.158;-1.586;2022-11-20T06:11:23;5.88;;;4.68;;
61373;SDS011;47242;48.158;-1.586;2022-11-20T06:13:50;5.80;;;4.25;;
61373;SDS011;47242;48.158;-1.586;2022-11-20T06:16:16;4.88;;;2.97;;
61373;SDS011;47242;48.158;-1.586;2022-11-20T06:18:44;4.22;;;3.13;;
61373;SDS011;47242;48.158;-1.586;2022-11-20T06:23:36;5.18;;;3.38;;
61373;SDS011;47242;48.158;-1.586;2022-11-20T06:26:09;4.80;;;3.08;;
61373;SDS011;47242;48.158;-1.586;2022-11-20T06:28:37;4.28;;;3.25;;
61373;SDS011;47242;48.158;-1.586;2022-11-20T06:31:03;6.82;;;3.60;;
61373;SDS011;47242;48.158;-1.586;2022-11-20T06:33:29;3.63;;;2.95;;
61373;SDS011;47242;48.158;-1.586;2022-11-20T06:35:56;3.97;;;2.90;;
61373;SDS011;47242;48.158;-1.586;2022-11-20T06:38:25;5.15;;;2.50;;
61373;SDS011;47242;48.158;-1.586;2022-11-20T06:40:52;3.60;;;2.88;;
61373;SDS011;47242;48.158;-1.586;2022-11-20T06:43:18;5.05;;;2.75;;
61373;SDS011;47242;48.158;-1.586;2022-11-20T06:45:44;3.88;;;3.08;;
61373;SDS011;47242;48.158;-1.586;2022-11-20T06:48:09;5.13;;;2.72;;
61373;SDS011;47242;48.158;-1.586;2022-11-20T06:50:38;3.63;;;2.58;;
61373;SDS011;47242;48.158;-1.586;2022-11-20T06:53:04;4.03;;;3.17;;
61373;SDS011;47242;48.158;-1.586;2022-11-20T06:55:30;3.20;;;2.70;;
61373;SDS011;47242;48.158;-1.586;2022-11-20T06:57:56;3.58;;;2.33;;
61373;SDS011;47242;48.158;-1.586;2022-11-20T07:00:22;3.28;;;2.45;;
61373;SDS011;47242;48.158;-1.586;2022-11-20T07:02:48;6.38;;;3.00;;
61373;SDS011;47242;48.158;-1.586;2022-11-20T07:05:13;7.63;;;4.28;;
61373;SDS011;47242;48.158;-1.586;2022-11-20T07:07:39;8.05;;;4.78;;
61373;SDS011;47242;48.158;-1.586;2022-11-20T07:10:05;7.57;;;5.15;;
61373;SDS011;47242;48.158;-1.586;2022-11-20T07:12:31;9.13;;;5.45;;
61373;SDS011;47242;48.158;-1.586;2022-11-20T07:14:56;11.13;;;5.45;;
61373;SDS011;47242;48.158;-1.586;2022-11-20T07:17:22;9.52;;;4.88;;
61373;SDS011;47242;48.158;-1.586;2022-11-20T07:19:48;10.40;;;5.60;;
61373;SDS011;47242;48.158;-1.586;2022-11-20T07:22:13;7.82;;;5.38;;
61373;SDS011;47242;48.158;-1.586;2022-11-20T07:24:39;7.63;;;4.70;;
61373;SDS011;47242;48.158;-1.586;2022-11-20T07:27:04;6.30;;;3.53;;
61373;SDS011;47242;48.158;-1.586;2022-11-20T07:29:30;5.97;;;3.28;;
61373;SDS011;47242;48.158;-1.586;2022-11-20T07:31:56;5.28;;;3.22;;
61373;SDS011;47242;48.158;-1.586;2022-11-20T07:34:22;3.58;;;3.28;;
61373;SDS011;47242;48.158;-1.586;2022-11-20T07:36:48;6.05;;;2.75;;
61373;SDS011;47242;48.158;-1.586;2022-11-20T07:39:13;5.55;;;3.05;;
61373;SDS011;47242;48.158;-1.586;2022-11-20T07:41:39;3.58;;;3.08;;
61373;SDS011;47242;48.158;-1.586;2022-11-20T07:44:04;3.75;;;2.58;;
61373;SDS011;47242;48.158;-1.586;2022-11-20T07:46:30;4.25;;;3.00;;
61373;SDS011;47242;48.158;-1.586;2022-11-20T07:48:56;5.47;;;2.70;;
61373;SDS011;47242;48.158;-1.586;2022-11-20T07:51:21;4.15;;;2.95;;
61373;SDS011;47242;48.158;-1.586;2022-11-20T07:53:47;3.38;;;2.45;;
61373;SDS011;47242;48.158;-1.586;2022-11-20T07:56:15;3.63;;;2.72;;
61373;SDS011;47242;48.158;-1.586;2022-11-20T07:58:41;4.00;;;2.90;;
61373;SDS011;47242;48.158;-1.586;2022-11-20T08:01:07;4.90;;;2.78;;
61373;SDS011;47242;48.158;-1.586;2022-11-20T08:03:33;4.22;;;2.95;;
61373;SDS011;47242;48.158;-1.586;2022-11-20T08:06:00;4.57;;;2.63;;
61373;SDS011;47242;48.158;-1.586;2022-11-20T08:08:26;3.97;;;2.88;;
61373;SDS011;47242;48.158;-1.586;2022-11-20T08:10:52;4.75;;;2.88;;
61373;SDS011;47242;48.158;-1.586;2022-11-20T08:13:38;4.95;;;3.10;;
61373;SDS011;47242;48.158;-1.586;2022-11-20T08:16:22;6.43;;;3.30;;
61373;SDS011;47242;48.158;-1.586;2022-11-20T08:18:47;6.32;;;2.97;;
61373;SDS011;47242;48.158;-1.586;2022-11-20T08:21:13;5.65;;;4.30;;
61373;SDS011;47242;48.158;-1.586;2022-11-20T08:23:38;4.15;;;3.05;;
61373;SDS011;47242;48.158;-1.586;2022-11-20T08:26:04;6.18;;;3.30;;
61373;SDS011;47242;48.158;-1.586;2022-11-20T08:28:30;4.32;;;2.95;;
61373;SDS011;47242;48.158;-1.586;2022-11-20T08:30:59;5.05;;;3.15;;
61373;SDS011;47242;48.158;-1.586;2022-11-20T08:33:25;6.00;;;3.45;;
61373;SDS011;47242;48.158;-1.586;2022-11-20T08:35:51;5.78;;;4.03;;
61373;SDS011;47242;48.158;-1.586;2022-11-20T08:38:17;10.52;;;4.68;;
61373;SDS011;47242;48.158;-1.586;2022-11-20T08:40:43;10.85;;;4.80;;
61373;SDS011;47242;48.158;-1.586;2022-11-20T08:43:31;9.05;;;4.57;;
61373;SDS011;47242;48.158;-1.586;2022-11-20T08:45:57;8.20;;;3.92;;
61373;SDS011;47242;48.158;-1.586;2022-11-20T08:48:22;7.28;;;4.00;;
61373;SDS011;47242;48.158;-1.586;2022-11-20T08:50:48;8.35;;;3.35;;
61373;SDS011;47242;48.158;-1.586;2022-11-20T08:53:14;7.25;;;3.80;;
61373;SDS011;47242;48.158;-1.586;2022-11-20T08:55:39;10.27;;;4.35;;
61373;SDS011;47242;48.158;-1.586;2022-11-20T08:58:05;7.70;;;3.60;;
61373;SDS011;47242;48.158;-1.586;2022-11-20T09:00:32;6.13;;;3.50;;
61373;SDS011;47242;48.158;-1.586;2022-11-20T09:02:58;4.93;;;3.65;;
61373;SDS011;47242;48.158;-1.586;2022-11-20T09:05:25;5.72;;;2.45;;
61373;SDS011;47242;48.158;-1.586;2022-11-20T09:07:51;7.57;;;2.47;;
61373;SDS011;47242;48.158;-1.586;2022-11-20T09:10:20;8.13;;;2.05;;
61373;SDS011;47242;48.158;-1.586;2022-11-20T09:12:48;6.97;;;3.45;;
61373;SDS011;47242;48.158;-1.586;2022-11-20T09:15:14;8.85;;;2.40;;
61373;SDS011;47242;48.158;-1.586;2022-11-20T09:17:40;8.25;;;2.58;;
61373;SDS011;47242;48.158;-1.586;2022-11-20T09:20:05;6.03;;;2.85;;
61373;SDS011;47242;48.158;-1.586;2022-11-20T09:22:31;6.10;;;2.38;;
61373;SDS011;47242;48.158;-1.586;2022-11-20T09:24:57;7.13;;;2.45;;
61373;SDS011;47242;48.158;-1.586;2022-11-20T09:27:23;9.13;;;2.72;;
61373;SDS011;47242;48.158;-1.586;2022-11-20T09:29:49;11.68;;;3.15;;
61373;SDS011;47242;48.158;-1.586;2022-11-20T09:32:14;8.57;;;2.33;;
61373;SDS011;47242;48.158;-1.586;2022-11-20T09:34:40;6.72;;;2.38;;
61373;SDS011;47242;48.158;-1.586;2022-11-20T09:37:05;12.60;;;2.25;;
61373;SDS011;47242;48.158;-1.586;2022-11-20T09:39:31;9.93;;;2.47;;
61373;SDS011;47242;48.158;-1.586;2022-11-20T09:47:44;14.40;;;2.30;;
61373;SDS011;47242;48.158;-1.586;2022-11-20T09:50:31;14.45;;;2.42;;
61373;SDS011;47242;48.158;-1.586;2022-11-20T09:55:55;23.80;;;3.78;;
61373;SDS011;47242;48.158;-1.586;2022-11-20T09:58:27;19.23;;;3.08;;
61373;SDS011;47242;48.158;-1.586;2022-11-20T10:01:00;11.77;;;2.53;;
61373;SDS011;47242;48.158;-1.586;2022-11-20T10:03:41;10.98;;;2.35;;
61373;SDS011;47242;48.158;-1.586;2022-11-20T10:06:31;10.88;;;2.58;;
61373;SDS011;47242;48.158;-1.586;2022-11-20T10:09:06;12.10;;;2.38;;
61373;SDS011;47242;48.158;-1.586;2022-11-20T10:14:41;23.42;;;2.78;;
61373;SDS011;47242;48.158;-1.586;2022-11-20T10:22:56;20.02;;;2.30;;
61373;SDS011;47242;48.158;-1.586;2022-11-20T10:25:39;15.82;;;2.83;;
61373;SDS011;47242;48.158;-1.586;2022-11-20T10:31:30;15.60;;;3.00;;
61373;SDS011;47242;48.158;-1.586;2022-11-20T10:33:59;11.15;;;3.78;;
61373;SDS011;47242;48.158;-1.586;2022-11-20T10:36:32;14.93;;;2.63;;
61373;SDS011;47242;48.158;-1.586;2022-11-20T10:39:04;19.05;;;2.78;;
61373;SDS011;47242;48.158;-1.586;2022-11-20T10:41:42;23.77;;;3.63;;
61373;SDS011;47242;48.158;-1.586;2022-11-20T10:44:20;16.42;;;3.17;;
61373;SDS011;47242;48.158;-1.586;2022-11-20T10:47:16;16.13;;;2.50;;
61373;SDS011;47242;48.158;-1.586;2022-11-20T10:49:43;17.58;;;3.00;;
61373;SDS011;47242;48.158;-1.586;2022-11-20T10:52:21;16.33;;;3.03;;
61373;SDS011;47242;48.158;-1.586;2022-11-20T10:55:20;11.95;;;2.80;;
61373;SDS011;47242;48.158;-1.586;2022-11-20T10:58:18;18.98;;;3.22;;
61373;SDS011;47242;48.158;-1.586;2022-11-20T11:01:16;22.70;;;3.83;;
61373;SDS011;47242;48.158;-1.586;2022-11-20T11:03:43;20.42;;;3.90;;
61373;SDS011;47242;48.158;-1.586;2022-11-20T11:06:16;12.02;;;2.92;;
61373;SDS011;47242;48.158;-1.586;2022-11-20T11:08:55;14.48;;;3.10;;
61373;SDS011;47242;48.158;-1.586;2022-11-20T11:11:24;10.95;;;2.42;;
61373;SDS011;47242;48.158;-1.586;2022-11-20T11:13:53;14.27;;;2.97;;
61373;SDS011;47242;48.158;-1.586;2022-11-20T11:16:40;10.32;;;3.25;;
61373;SDS011;47242;48.158;-1.586;2022-11-20T11:19:15;18.30;;;3.55;;
61373;SDS011;47242;48.158;-1.586;2022-11-20T11:21:46;19.13;;;2.92;;
61373;SDS011;47242;48.158;-1.586;2022-11-20T11:24:31;18.75;;;3.30;;
61373;SDS011;47242;48.158;-1.586;2022-11-20T11:26:58;16.08;;;4.05;;
61373;SDS011;47242;48.158;-1.586;2022-11-20T11:29:29;14.85;;;3.22;;
61373;SDS011;47242;48.158;-1.586;2022-11-20T11:32:10;15.55;;;3.85;;
61373;SDS011;47242;48.158;-1.586;2022-11-20T11:34:40;16.25;;;2.85;;
61373;SDS011;47242;48.158;-1.586;2022-11-20T11:37:18;14.30;;;3.08;;
61373;SDS011;47242;48.158;-1.586;2022-11-20T11:39:46;14.55;;;3.28;;
61373;SDS011;47242;48.158;-1.586;2022-11-20T11:42:15;19.30;;;2.97;;
61373;SDS011;47242;48.158;-1.586;2022-11-20T11:44:44;15.10;;;2.42;;
61373;SDS011;47242;48.158;-1.586;2022-11-20T11:47:33;16.35;;;3.05;;
61373;SDS011;47242;48.158;-1.586;2022-11-20T11:58:11;11.80;;;1.95;;
61373;SDS011;47242;48.158;-1.586;2022-11-20T12:00:54;12.10;;;2.85;;
61373;SDS011;47242;48.158;-1.586;2022-11-20T12:03:40;12.20;;;2.03;;
61373;SDS011;47242;48.158;-1.586;2022-11-20T12:06:15;9.98;;;2.42;;
61373;SDS011;47242;48.158;-1.586;2022-11-20T12:08:49;8.93;;;1.88;;
61373;SDS011;47242;48.158;-1.586;2022-11-20T12:14:11;10.13;;;1.98;;
61373;SDS011;47242;48.158;-1.586;2022-11-20T12:16:44;18.33;;;2.33;;
61373;SDS011;47242;48.158;-1.586;2022-11-20T12:19:10;7.85;;;1.63;;
61373;SDS011;47242;48.158;-1.586;2022-11-20T12:21:43;10.65;;;2.35;;
61373;SDS011;47242;48.158;-1.586;2022-11-20T12:24:32;10.27;;;2.42;;
61373;SDS011;47242;48.158;-1.586;2022-11-20T12:47:43;9.45;;;2.58;;
61373;SDS011;47242;48.158;-1.586;2022-11-20T12:58:27;14.95;;;2.80;;
61373;SDS011;47242;48.158;-1.586;2022-11-20T13:07:09;10.60;;;1.85;;
61373;SDS011;47242;48.158;-1.586;2022-11-20T13:09:47;10.88;;;1.75;;
61373;SDS011;47242;48.158;-1.586;2022-11-20T13:17:57;15.98;;;2.53;;
61373;SDS011;47242;48.158;-1.586;2022-11-20T13:20:25;8.60;;;1.55;;
61373;SDS011;47242;48.158;-1.586;2022-11-20T13:22:52;11.27;;;2.33;;
61373;SDS011;47242;48.158;-1.586;2022-11-20T13:28:44;12.55;;;2.47;;
61373;SDS011;47242;48.158;-1.586;2022-11-20T13:30:54;9.95;;;2.33;;
61373;SDS011;47242;48.158;-1.586;2022-11-20T13:33:33;14.13;;;1.98;;
61373;SDS011;47242;48.158;-1.586;2022-11-20T13:36:20;13.15;;;1.90;;
61373;SDS011;47242;48.158;-1.586;2022-11-20T13:38:48;8.90;;;1.80;;
61373;SDS011;47242;48.158;-1.586;2022-11-20T13:41:26;9.95;;;2.05;;
61373;SDS011;47242;48.158;-1.586;2022-11-20T13:43:59;6.20;;;1.85;;
61373;SDS011;47242;48.158;-1.586;2022-11-20T13:46:40;7.13;;;1.52;;
61373;SDS011;47242;48.158;-1.586;2022-11-20T13:49:09;13.13;;;2.00;;
61373;SDS011;47242;48.158;-1.586;2022-11-20T13:51:43;16.83;;;2.33;;
61373;SDS011;47242;48.158;-1.586;2022-11-20T13:54:17;10.77;;;2.13;;
61373;SDS011;47242;48.158;-1.586;2022-11-20T14:00:09;14.18;;;2.22;;
61373;SDS011;47242;48.158;-1.586;2022-11-20T14:03:29;12.20;;;2.15;;
61373;SDS011;47242;48.158;-1.586;2022-11-20T14:05:51;8.07;;;1.83;;
61373;SDS011;47242;48.158;-1.586;2022-11-20T14:08:36;9.98;;;2.92;;
61373;SDS011;47242;48.158;-1.586;2022-11-20T14:11:22;17.33;;;3.10;;
61373;SDS011;47242;48.158;-1.586;2022-11-20T14:13:56;13.43;;;2.45;;
61373;SDS011;47242;48.158;-1.586;2022-11-20T14:16:24;12.50;;;3.92;;
61373;SDS011;47242;48.158;-1.586;2022-11-20T14:18:52;16.25;;;5.45;;
61373;SDS011;47242;48.158;-1.586;2022-11-20T14:21:26;13.55;;;3.80;;
61373;SDS011;47242;48.158;-1.586;2022-11-20T14:24:04;11.68;;;2.53;;
61373;SDS011;47242;48.158;-1.586;2022-11-20T14:26:30;15.35;;;3.03;;
61373;SDS011;47242;48.158;-1.586;2022-11-20T14:28:56;11.73;;;3.35;;
61373;SDS011;47242;48.158;-1.586;2022-11-20T14:31:23;12.57;;;4.57;;
61373;SDS011;47242;48.158;-1.586;2022-11-20T14:33:54;18.08;;;5.78;;
61373;SDS011;47242;48.158;-1.586;2022-11-20T14:36:21;22.30;;;5.97;;
61373;SDS011;47242;48.158;-1.586;2022-11-20T14:38:49;18.95;;;5.43;;
61373;SDS011;47242;48.158;-1.586;2022-11-20T14:41:22;13.13;;;5.20;;
61373;SDS011;47242;48.158;-1.586;2022-11-20T14:43:58;9.05;;;2.97;;
61373;SDS011;47242;48.158;-1.586;2022-11-20T14:46:24;14.35;;;3.03;;
61373;SDS011;47242;48.158;-1.586;2022-11-20T14:48:51;9.80;;;2.20;;
61373;SDS011;47242;48.158;-1.586;2022-11-20T14:51:39;8.90;;;2.20;;
61373;SDS011;47242;48.158;-1.586;2022-11-20T14:54:14;22.40;;;3.45;;
61373;SDS011;47242;48.158;-1.586;2022-11-20T14:57:00;10.23;;;2.15;;
61373;SDS011;47242;48.158;-1.586;2022-11-20T14:59:28;9.63;;;3.03;;
61373;SDS011;47242;48.158;-1.586;2022-11-20T15:01:56;10.85;;;2.72;;
61373;SDS011;47242;48.158;-1.586;2022-11-20T15:04:30;9.35;;;2.42;;
61373;SDS011;47242;48.158;-1.586;2022-11-20T15:06:57;11.63;;;1.98;;
61373;SDS011;47242;48.158;-1.586;2022-11-20T15:09:24;4.68;;;2.30;;
61373;SDS011;47242;48.158;-1.586;2022-11-20T15:11:52;10.45;;;2.63;;
61373;SDS011;47242;48.158;-1.586;2022-11-20T15:14:23;12.95;;;2.03;;
61373;SDS011;47242;48.158;-1.586;2022-11-20T15:16:50;3.22;;;1.05;;
61373;SDS011;47242;48.158;-1.586;2022-11-20T15:19:17;8.30;;;1.63;;
61373;SDS011;47242;48.158;-1.586;2022-11-20T15:21:45;5.47;;;1.70;;
61373;SDS011;47242;48.158;-1.586;2022-11-20T15:24:11;11.82;;;3.33;;
61373;SDS011;47242;48.158;-1.586;2022-11-20T15:26:37;5.25;;;2.50;;
61373;SDS011;47242;48.158;-1.586;2022-11-20T15:29:05;8.32;;;2.85;;
61373;SDS011;47242;48.158;-1.586;2022-11-20T15:31:33;6.28;;;2.35;;
61373;SDS011;47242;48.158;-1.586;2022-11-20T15:33:59;11.57;;;2.75;;
61373;SDS011;47242;48.158;-1.586;2022-11-20T15:36:25;15.43;;;3.60;;
61373;SDS011;47242;48.158;-1.586;2022-11-20T15:38:51;9.60;;;3.10;;
61373;SDS011;47242;48.158;-1.586;2022-11-20T15:41:16;9.98;;;3.00;;
61373;SDS011;47242;48.158;-1.586;2022-11-20T15:43:42;11.38;;;3.70;;
61373;SDS011;47242;48.158;-1.586;2022-11-20T15:46:15;11.02;;;3.45;;
61373;SDS011;47242;48.158;-1.586;2022-11-20T15:48:45;14.68;;;3.45;;
61373;SDS011;47242;48.158;-1.586;2022-11-20T15:51:37;10.98;;;3.90;;
61373;SDS011;47242;48.158;-1.586;2022-11-20T15:54:09;19.10;;;4.75;;
61373;SDS011;47242;48.158;-1.586;2022-11-20T15:56:37;16.10;;;4.65;;
61373;SDS011;47242;48.158;-1.586;2022-11-20T15:59:03;15.32;;;4.88;;
61373;SDS011;47242;48.158;-1.586;2022-11-20T16:01:28;15.00;;;4.70;;
61373;SDS011;47242;48.158;-1.586;2022-11-20T16:03:54;18.13;;;5.50;;
61373;SDS011;47242;48.158;-1.586;2022-11-20T16:06:21;17.40;;;6.45;;
61373;SDS011;47242;48.158;-1.586;2022-11-20T16:08:46;14.43;;;5.82;;
61373;SDS011;47242;48.158;-1.586;2022-11-20T16:11:13;13.00;;;4.50;;
61373;SDS011;47242;48.158;-1.586;2022-11-20T16:13:41;15.25;;;4.45;;
61373;SDS011;47242;48.158;-1.586;2022-11-20T16:16:27;17.15;;;7.13;;
61373;SDS011;47242;48.158;-1.586;2022-11-20T16:18:55;18.58;;;5.65;;
61373;SDS011;47242;48.158;-1.586;2022-11-20T16:21:22;12.85;;;5.68;;
61373;SDS011;47242;48.158;-1.586;2022-11-20T16:23:56;16.42;;;5.75;;
61373;SDS011;47242;48.158;-1.586;2022-11-20T16:26:27;13.10;;;4.78;;
61373;SDS011;47242;48.158;-1.586;2022-11-20T16:28:53;14.68;;;4.85;;
61373;SDS011;47242;48.158;-1.586;2022-11-20T16:31:19;13.57;;;4.85;;
61373;SDS011;47242;48.158;-1.586;2022-11-20T16:33:49;11.43;;;3.80;;
61373;SDS011;47242;48.158;-1.586;2022-11-20T16:36:16;12.38;;;3.25;;
61373;SDS011;47242;48.158;-1.586;2022-11-20T16:38:43;19.00;;;4.22;;
61373;SDS011;47242;48.158;-1.586;2022-11-20T16:41:09;12.77;;;5.28;;
61373;SDS011;47242;48.158;-1.586;2022-11-20T16:43:52;17.17;;;4.18;;
61373;SDS011;47242;48.158;-1.586;2022-11-20T16:46:23;18.85;;;4.30;;
61373;SDS011;47242;48.158;-1.586;2022-11-20T16:48:54;13.90;;;4.30;;
61373;SDS011;47242;48.158;-1.586;2022-11-20T16:51:22;15.60;;;6.93;;
61373;SDS011;47242;48.158;-1.586;2022-11-20T16:53:49;12.77;;;6.00;;
61373;SDS011;47242;48.158;-1.586;2022-11-20T16:56:16;12.98;;;4.82;;
61373;SDS011;47242;48.158;-1.586;2022-11-20T16:58:44;17.38;;;5.35;;
61373;SDS011;47242;48.158;-1.586;2022-11-20T17:01:11;11.65;;;4.75;;
61373;SDS011;47242;48.158;-1.586;2022-11-20T17:03:39;11.68;;;5.20;;
61373;SDS011;47242;48.158;-1.586;2022-11-20T17:06:13;18.33;;;6.80;;
61373;SDS011;47242;48.158;-1.586;2022-11-20T17:08:43;12.30;;;5.80;;
61373;SDS011;47242;48.158;-1.586;2022-11-20T17:11:11;17.02;;;6.20;;
61373;SDS011;47242;48.158;-1.586;2022-11-20T17:13:38;16.52;;;7.47;;
61373;SDS011;47242;48.158;-1.586;2022-11-20T17:16:09;13.57;;;5.55;;
61373;SDS011;47242;48.158;-1.586;2022-11-20T17:18:36;14.35;;;5.38;;
61373;SDS011;47242;48.158;-1.586;2022-11-20T17:21:02;17.38;;;5.80;;
61373;SDS011;47242;48.158;-1.586;2022-11-20T17:23:33;11.02;;;6.47;;
61373;SDS011;47242;48.158;-1.586;2022-11-20T17:28:36;18.35;;;6.63;;
61373;SDS011;47242;48.158;-1.586;2022-11-20T17:31:06;19.45;;;6.05;;
61373;SDS011;47242;48.158;-1.586;2022-11-20T17:33:34;16.00;;;6.53;;
61373;SDS011;47242;48.158;-1.586;2022-11-20T17:36:02;13.43;;;5.57;;
61373;SDS011;47242;48.158;-1.586;2022-11-20T17:38:28;16.95;;;6.18;;
61373;SDS011;47242;48.158;-1.586;2022-11-20T17:41:04;17.52;;;5.63;;
61373;SDS011;47242;48.158;-1.586;2022-11-20T17:43:31;15.43;;;5.93;;
61373;SDS011;47242;48.158;-1.586;2022-11-20T17:45:58;16.92;;;6.28;;
61373;SDS011;47242;48.158;-1.586;2022-11-20T17:48:23;16.95;;;6.30;;
61373;SDS011;47242;48.158;-1.586;2022-11-20T17:50:49;16.63;;;7.20;;
61373;SDS011;47242;48.158;-1.586;2022-11-20T17:53:15;13.63;;;6.15;;
61373;SDS011;47242;48.158;-1.586;2022-11-20T17:55:41;12.40;;;4.85;;
61373;SDS011;47242;48.158;-1.586;2022-11-20T17:58:28;14.13;;;5.03;;
61373;SDS011;47242;48.158;-1.586;2022-11-20T18:00:54;17.75;;;5.72;;
61373;SDS011;47242;48.158;-1.586;2022-11-20T18:03:19;19.58;;;5.45;;
61373;SDS011;47242;48.158;-1.586;2022-11-20T18:05:48;12.93;;;5.80;;
61373;SDS011;47242;48.158;-1.586;2022-11-20T18:08:13;12.45;;;5.50;;
61373;SDS011;47242;48.158;-1.586;2022-11-20T18:10:39;15.23;;;5.15;;
61373;SDS011;47242;48.158;-1.586;2022-11-20T18:13:05;14.68;;;4.78;;
61373;SDS011;47242;48.158;-1.586;2022-11-20T18:15:30;16.88;;;5.18;;
61373;SDS011;47242;48.158;-1.586;2022-11-20T18:17:57;12.43;;;5.82;;
61373;SDS011;47242;48.158;-1.586;2022-11-20T18:20:22;15.73;;;7.30;;
61373;SDS011;47242;48.158;-1.586;2022-11-20T18:22:48;25.65;;;8.55;;
61373;SDS011;47242;48.158;-1.586;2022-11-20T18:25:14;16.25;;;8.73;;
61373;SDS011;47242;48.158;-1.586;2022-11-20T18:27:39;14.90;;;6.82;;
61373;SDS011;47242;48.158;-1.586;2022-11-20T18:30:05;12.38;;;6.13;;
61373;SDS011;47242;48.158;-1.586;2022-11-20T18:32:32;13.70;;;5.43;;
61373;SDS011;47242;48.158;-1.586;2022-11-20T18:34:59;9.07;;;4.18;;
61373;SDS011;47242;48.158;-1.586;2022-11-20T18:37:25;9.85;;;4.57;;
61373;SDS011;47242;48.158;-1.586;2022-11-20T18:39:51;10.57;;;4.47;;
61373;SDS011;47242;48.158;-1.586;2022-11-20T18:42:17;17.80;;;5.13;;
61373;SDS011;47242;48.158;-1.586;2022-11-20T18:45:02;9.80;;;4.60;;
61373;SDS011;47242;48.158;-1.586;2022-11-20T18:47:30;9.35;;;5.80;;
61373;SDS011;47242;48.158;-1.586;2022-11-20T18:49:58;7.50;;;4.95;;
61373;SDS011;47242;48.158;-1.586;2022-11-20T18:54:53;10.57;;;4.25;;
61373;SDS011;47242;48.158;-1.586;2022-11-20T18:57:20;11.52;;;4.30;;
61373;SDS011;47242;48.158;-1.586;2022-11-20T18:59:47;11.90;;;4.28;;
61373;SDS011;47242;48.158;-1.586;2022-11-20T19:02:14;11.98;;;4.60;;
61373;SDS011;47242;48.158;-1.586;2022-11-20T19:04:41;11.40;;;5.13;;
61373;SDS011;47242;48.158;-1.586;2022-11-20T19:07:07;15.68;;;5.97;;
61373;SDS011;47242;48.158;-1.586;2022-11-20T19:09:42;10.98;;;5.85;;
61373;SDS011;47242;48.158;-1.586;2022-11-20T19:12:10;16.80;;;5.35;;
61373;SDS011;47242;48.158;-1.586;2022-11-20T19:14:36;15.13;;;4.30;;
61373;SDS011;47242;48.158;-1.586;2022-11-20T19:17:02;10.13;;;4.13;;
61373;SDS011;47242;48.158;-1.586;2022-11-20T19:19:29;11.45;;;4.53;;
61373;SDS011;47242;48.158;-1.586;2022-11-20T19:21:55;18.13;;;4.72;;
61373;SDS011;47242;48.158;-1.586;2022-11-20T19:24:20;10.95;;;4.68;;
61373;SDS011;47242;48.158;-1.586;2022-11-20T19:26:47;14.32;;;4.68;;
61373;SDS011;47242;48.158;-1.586;2022-11-20T19:29:13;20.88;;;5.65;;
61373;SDS011;47242;48.158;-1.586;2022-11-20T19:31:40;7.75;;;4.03;;
61373;SDS011;47242;48.158;-1.586;2022-11-20T19:34:05;16.95;;;5.53;;
61373;SDS011;47242;48.158;-1.586;2022-11-20T19:36:32;11.32;;;5.22;;
61373;SDS011;47242;48.158;-1.586;2022-11-20T19:39:00;9.60;;;4.63;;
61373;SDS011;47242;48.158;-1.586;2022-11-20T19:41:29;11.35;;;5.28;;
61373;SDS011;47242;48.158;-1.586;2022-11-20T19:44:03;12.13;;;4.93;;
61373;SDS011;47242;48.158;-1.586;2022-11-20T19:46:30;9.93;;;4.38;;
61373;SDS011;47242;48.158;-1.586;2022-11-20T19:48:57;9.35;;;4.07;;
61373;SDS011;47242;48.158;-1.586;2022-11-20T19:51:25;19.50;;;4.72;;
61373;SDS011;47242;48.158;-1.586;2022-11-20T19:53:56;13.07;;;4.15;;
61373;SDS011;47242;48.158;-1.586;2022-11-20T19:56:22;16.98;;;3.72;;
61373;SDS011;47242;48.158;-1.586;2022-11-20T19:58:48;12.95;;;4.35;;
61373;SDS011;47242;48.158;-1.586;2022-11-20T20:01:15;15.13;;;5.25;;
61373;SDS011;47242;48.158;-1.586;2022-11-20T20:03:43;12.18;;;4.70;;
61373;SDS011;47242;48.158;-1.586;2022-11-20T20:06:10;12.18;;;4.15;;
61373;SDS011;47242;48.158;-1.586;2022-11-20T20:08:38;12.75;;;4.63;;
61373;SDS011;47242;48.158;-1.586;2022-11-20T20:13:38;17.98;;;3.92;;
61373;SDS011;47242;48.158;-1.586;2022-11-20T20:16:10;11.10;;;3.78;;
61373;SDS011;47242;48.158;-1.586;2022-11-20T20:18:40;10.60;;;4.25;;
61373;SDS011;47242;48.158;-1.586;2022-11-20T20:21:07;11.63;;;3.65;;
61373;SDS011;47242;48.158;-1.586;2022-11-20T20:23:35;20.55;;;4.90;;
61373;SDS011;47242;48.158;-1.586;2022-11-20T20:26:02;49.38;;;21.67;;
61373;SDS011;47242;48.158;-1.586;2022-11-20T20:28:29;13.88;;;7.18;;
61373;SDS011;47242;48.158;-1.586;2022-11-20T20:30:55;22.25;;;6.60;;
61373;SDS011;47242;48.158;-1.586;2022-11-20T20:33:22;18.75;;;8.35;;
61373;SDS011;47242;48.158;-1.586;2022-11-20T20:35:48;23.80;;;11.35;;
61373;SDS011;47242;48.158;-1.586;2022-11-20T20:38:13;19.75;;;11.07;;
61373;SDS011;47242;48.158;-1.586;2022-11-20T20:40:45;21.33;;;12.50;;
61373;SDS011;47242;48.158;-1.586;2022-11-20T20:43:12;19.48;;;10.95;;
61373;SDS011;47242;48.158;-1.586;2022-11-20T20:45:43;28.38;;;11.38;;
61373;SDS011;47242;48.158;-1.586;2022-11-20T20:48:11;24.33;;;11.45;;
61373;SDS011;47242;48.158;-1.586;2022-11-20T20:50:36;14.27;;;7.32;;
61373;SDS011;47242;48.158;-1.586;2022-11-20T20:53:04;13.48;;;6.65;;
61373;SDS011;47242;48.158;-1.586;2022-11-20T20:55:30;14.13;;;6.03;;
61373;SDS011;47242;48.158;-1.586;2022-11-20T20:57:58;14.25;;;8.48;;
61373;SDS011;47242;48.158;-1.586;2022-11-20T21:00:23;12.10;;;7.03;;
61373;SDS011;47242;48.158;-1.586;2022-11-20T21:02:49;11.88;;;6.45;;
61373;SDS011;47242;48.158;-1.586;2022-11-20T21:05:15;21.27;;;6.82;;
61373;SDS011;47242;48.158;-1.586;2022-11-20T21:07:41;21.35;;;7.10;;
61373;SDS011;47242;48.158;-1.586;2022-11-20T21:10:25;15.90;;;9.32;;
61373;SDS011;47242;48.158;-1.586;2022-11-20T21:12:51;18.83;;;9.50;;
61373;SDS011;47242;48.158;-1.586;2022-11-20T21:15:17;18.05;;;7.43;;
61373;SDS011;47242;48.158;-1.586;2022-11-20T21:17:43;18.77;;;8.80;;
61373;SDS011;47242;48.158;-1.586;2022-11-20T21:20:11;19.77;;;8.13;;
61373;SDS011;47242;48.158;-1.586;2022-11-20T21:22:55;14.38;;;7.30;;
61373;SDS011;47242;48.158;-1.586;2022-11-20T21:25:21;17.02;;;6.53;;
61373;SDS011;47242;48.158;-1.586;2022-11-20T21:27:47;16.35;;;6.05;;
61373;SDS011;47242;48.158;-1.586;2022-11-20T21:30:12;10.23;;;5.20;;
61373;SDS011;47242;48.158;-1.586;2022-11-20T21:32:38;15.73;;;5.70;;
61373;SDS011;47242;48.158;-1.586;2022-11-20T21:35:09;14.27;;;5.88;;
61373;SDS011;47242;48.158;-1.586;2022-11-20T21:37:35;11.00;;;7.82;;
61373;SDS011;47242;48.158;-1.586;2022-11-20T21:40:00;20.52;;;7.10;;